Time;durP1;ratioP1;P1;durP2;ratioP2;P2;SDS_P1;SDS_P2;PMS_P1;PMS_P2;Temp;Humidity;BMP_temperature;BMP_pressure;BME280_temperature;BME280_humidity;BME280_pressure;Samples;Min_cycle;Max_cycle;Signal;HPM_P1;HPM_P2
2023/01/25 00:00:04;;;;;;;10.38;7.47;;;;;;;8.58;100.00;102843.75;5026345;28;20052;-49
2023/01/25 00:02:32;;;;;;;13.00;8.40;;;;;;;8.58;100.00;102835.47;5015318;28;20054;-42
2023/01/25 00:04:59;;;;;;;13.43;7.95;;;;;;;8.58;100.00;102839.06;5022223;28;20045;-46
2023/01/25 00:07:25;;;;;;;10.65;7.43;;;;;;;8.59;100.00;102842.66;5022459;28;20144;-43
2023/01/25 00:09:52;;;;;;;11.00;7.38;;;;;;;8.58;100.00;102847.34;5023812;28;20691;-44
2023/01/25 00:12:19;;;;;;;12.25;7.75;;;;;;;8.59;100.00;102834.38;5025169;28;20484;-44
2023/01/25 00:14:45;;;;;;;10.07;7.20;;;;;;;8.58;100.00;102828.03;5028441;28;20049;-43
2023/01/25 00:17:12;;;;;;;10.50;6.43;;;;;;;8.60;100.00;102821.41;5028342;28;20044;-45
2023/01/25 00:19:39;;;;;;;13.13;7.18;;;;;;;8.60;100.00;102827.75;5027946;28;20037;-45
2023/01/25 00:22:05;;;;;;;13.60;7.47;;;;;;;8.60;100.00;102819.47;5029520;28;20048;-43
2023/01/25 00:24:32;;;;;;;12.32;7.53;;;;;;;8.61;100.00;102821.09;5028241;28;20064;-43
2023/01/25 00:26:59;;;;;;;9.15;5.93;;;;;;;8.62;100.00;102824.69;5027863;28;20045;-43
2023/01/25 00:29:25;;;;;;;23.02;9.23;;;;;;;8.61;100.00;102823.88;5028167;28;20045;-43
2023/01/25 00:31:58;;;;;;;8.20;5.70;;;;;;;8.62;100.00;102825.53;5027979;28;20049;-43
2023/01/25 00:34:24;;;;;;;8.80;6.03;;;;;;;8.63;100.00;102823.59;5028067;28;20042;-42
2023/01/25 00:36:51;;;;;;;7.07;5.70;;;;;;;8.63;100.00;102827.16;5030831;28;20083;-44
2023/01/25 00:39:18;;;;;;;9.25;5.50;;;;;;;8.65;100.00;102821.38;5029237;28;20037;-43
2023/01/25 00:41:45;;;;;;;8.13;5.68;;;;;;;8.67;100.00;102816.41;5027429;28;20510;-44
2023/01/25 00:44:11;;;;;;;8.88;5.93;;;;;;;8.67;100.00;102825.50;5027371;28;20037;-43
2023/01/25 00:46:38;;;;;;;8.25;6.22;;;;;;;8.67;100.00;102806.19;5027329;28;20152;-44
2023/01/25 00:49:06;;;;;;;10.00;7.22;;;;;;;8.67;100.00;102811.72;5027505;28;20064;-43
2023/01/25 00:51:32;;;;;;;8.30;6.10;;;;;;;8.69;100.00;102814.16;5026899;28;20045;-43
2023/01/25 00:53:59;;;;;;;8.57;5.88;;;;;;;8.67;100.00;102819.16;5028081;28;20049;-44
2023/01/25 00:56:26;;;;;;;9.07;5.95;;;;;;;8.68;100.00;102815.31;5027360;28;20334;-43
2023/01/25 00:58:52;;;;;;;8.23;5.80;;;;;;;8.68;100.00;102812.53;5027188;28;20407;-43
2023/01/25 01:01:19;;;;;;;12.10;6.03;;;;;;;8.66;100.00;102804.53;5027220;28;20507;-43
2023/01/25 01:03:46;;;;;;;8.02;6.28;;;;;;;8.68;100.00;102807.84;5008633;28;20128;-43
2023/01/25 01:06:13;;;;;;;10.80;7.40;;;;;;;8.66;100.00;102801.75;5026150;28;20153;-44
2023/01/25 01:08:41;;;;;;;9.93;6.60;;;;;;;8.66;100.00;102815.56;5030622;28;20046;-43
2023/01/25 01:11:10;;;;;;;9.45;6.65;;;;;;;8.67;100.00;102816.41;5025361;28;20064;-43
2023/01/25 01:13:37;;;;;;;9.35;6.45;;;;;;;8.68;100.00;102823.59;5026189;28;20063;-44
2023/01/25 01:16:12;;;;;;;12.25;7.13;;;;;;;8.66;100.00;102821.09;5027260;28;20140;-44
2023/01/25 01:18:42;;;;;;;12.65;7.93;;;;;;;8.65;100.00;102815.84;5026906;28;20510;-43
2023/01/25 01:21:11;;;;;;;10.68;7.55;;;;;;;8.64;100.00;102816.97;5026959;28;20045;-48
2023/01/25 01:23:38;;;;;;;9.23;7.55;;;;;;;8.63;100.00;102809.81;5027292;28;20073;-42
2023/01/25 01:26:09;;;;;;;13.13;7.20;;;;;;;8.62;100.00;102820.00;5027348;28;20449;-42
2023/01/25 01:28:39;;;;;;;12.90;8.68;;;;;;;8.61;100.00;102812.00;5026920;28;20419;-42
2023/01/25 01:31:09;;;;;;;12.43;8.27;;;;;;;8.61;100.00;102825.78;5027305;28;20053;-42
2023/01/25 01:33:37;;;;;;;11.32;7.80;;;;;;;8.60;100.00;102832.44;5026581;28;20052;-43
2023/01/25 01:36:14;;;;;;;16.38;8.93;;;;;;;8.58;100.00;102816.16;5026901;28;20057;-43
2023/01/25 01:38:42;;;;;;;12.93;8.88;;;;;;;8.58;100.00;102819.75;5038246;28;20048;-44
2023/01/25 01:41:10;;;;;;;14.63;9.52;;;;;;;8.55;100.00;102814.78;5027196;28;20049;-43
2023/01/25 01:43:37;;;;;;;16.75;9.70;;;;;;;8.56;100.00;102815.59;5027114;28;20506;-45
2023/01/25 01:46:32;;;;;;;15.85;9.40;;;;;;;8.55;100.00;102813.97;5027483;28;20052;-43
2023/01/25 01:49:26;;;;;;;14.05;8.48;;;;;;;8.53;100.00;102807.88;5022166;28;20057;-43
2023/01/25 01:52:04;;;;;;;18.55;9.07;;;;;;;8.51;100.00;102801.81;5025746;28;20059;-43
2023/01/25 01:54:40;;;;;;;18.63;10.18;;;;;;;8.51;100.00;102801.81;5027205;28;20041;-44
2023/01/25 01:57:07;;;;;;;19.67;10.88;;;;;;;8.50;100.00;102805.69;5027462;28;20056;-45
2023/01/25 01:59:44;;;;;;;17.63;10.85;;;;;;;8.50;100.00;102794.63;5027768;28;20054;-43
2023/01/25 02:02:12;;;;;;;15.88;10.15;;;;;;;8.49;100.00;102799.34;5030306;28;20400;-44
2023/01/25 02:04:41;;;;;;;14.80;9.93;;;;;;;8.48;100.00;102794.94;5018343;28;20073;-44
2023/01/25 02:07:16;;;;;;;15.70;9.98;;;;;;;8.48;100.00;102796.88;5033513;28;20049;-43
2023/01/25 02:09:43;;;;;;;19.98;11.18;;;;;;;8.47;100.00;102798.78;5030675;28;20470;-43
2023/01/25 02:12:11;;;;;;;15.77;9.70;;;;;;;8.48;100.00;102791.34;5030684;28;20041;-45
2023/01/25 02:14:47;;;;;;;15.80;10.50;;;;;;;8.47;100.00;102789.72;5031356;28;20041;-43
2023/01/25 02:17:14;;;;;;;15.88;9.00;;;;;;;8.44;100.00;102784.75;5032299;28;20087;-50
2023/01/25 02:20:00;;;;;;;16.27;10.15;;;;;;;8.45;100.00;102786.38;5041193;28;20041;-43
2023/01/25 02:22:43;;;;;;;15.00;9.73;;;;;;;8.44;100.00;102779.22;5030377;28;20046;-43
2023/01/25 02:25:13;;;;;;;16.17;9.18;;;;;;;8.45;100.00;102780.84;5030496;28;20578;-43
2023/01/25 02:27:44;;;;;;;17.50;9.98;;;;;;;8.44;100.00;102784.75;5030329;28;20044;-44
2023/01/25 02:30:11;;;;;;;17.27;9.93;;;;;;;8.44;100.00;102787.50;5030579;28;20060;-43
2023/01/25 02:32:38;;;;;;;14.63;8.25;;;;;;;8.44;100.00;102790.25;5030230;28;20798;-43
2023/01/25 02:35:05;;;;;;;13.95;9.30;;;;;;;8.45;100.00;102797.41;5030397;28;20411;-42
2023/01/25 02:37:32;;;;;;;14.45;8.48;;;;;;;8.45;100.00;102803.78;5037940;28;20033;-43
2023/01/25 02:39:59;;;;;;;11.73;7.35;;;;;;;8.45;100.00;102797.41;5033850;28;20149;-44
2023/01/25 02:42:30;;;;;;;12.82;8.68;;;;;;;8.45;100.00;102797.41;5012664;28;20076;-42
2023/01/25 02:44:57;;;;;;;15.43;8.80;;;;;;;8.46;100.00;102790.81;5027256;28;20056;-45
2023/01/25 02:47:24;;;;;;;12.18;8.35;;;;;;;8.45;100.00;102784.44;5012744;28;20049;-42
2023/01/25 02:49:50;;;;;;;13.88;8.05;;;;;;;8.45;100.00;102778.09;5030375;28;20056;-40
2023/01/25 02:52:17;;;;;;;14.93;8.30;;;;;;;8.47;100.00;102795.22;5030288;28;20052;-40
2023/01/25 02:54:44;;;;;;;12.73;8.50;;;;;;;8.47;100.00;102784.97;5030117;28;20132;-40
2023/01/25 02:57:11;;;;;;;13.65;8.70;;;;;;;8.46;100.00;102780.59;5029791;28;20561;-40
2023/01/25 02:59:37;;;;;;;11.27;7.10;;;;;;;8.46;100.00;102769.56;5029764;28;20033;-40
2023/01/25 03:02:04;;;;;;;13.50;8.95;;;;;;;8.47;100.00;102779.47;5057462;22;20072;-46
2023/01/25 03:04:31;;;;;;;12.43;8.07;;;;;;;8.47;100.00;102784.19;5049202;28;20036;-43
2023/01/25 03:06:58;;;;;;;15.18;8.95;;;;;;;8.48;100.00;102780.28;5051598;28;20065;-43
2023/01/25 03:09:24;;;;;;;11.75;7.55;;;;;;;8.48;100.00;102780.28;5051735;28;20124;-43
2023/01/25 03:11:51;;;;;;;13.35;8.55;;;;;;;8.48;100.00;102778.38;5049312;28;20120;-42
2023/01/25 03:14:19;;;;;;;13.40;7.78;;;;;;;8.49;100.00;102770.91;5048482;28;20521;-42
2023/01/25 03:16:46;;;;;;;14.93;8.85;;;;;;;8.49;100.00;102773.69;5049350;28;20315;-42
2023/01/25 03:19:12;;;;;;;15.27;8.65;;;;;;;8.49;100.00;102770.91;5048741;28;20079;-44
2023/01/25 03:21:40;;;;;;;15.48;8.80;;;;;;;8.49;100.00;102768.16;5049390;28;20383;-43
2023/01/25 03:24:09;;;;;;;12.35;7.63;;;;;;;8.49;100.00;102770.91;5049217;28;20095;-42
2023/01/25 03:27:09;;;;;;;14.75;7.25;;;;;;;8.49;100.00;102771.75;5053471;28;20056;-42
2023/01/25 03:29:22;;;;;;;13.98;8.18;;;;;;;8.49;100.00;102776.44;5038415;28;20045;-42
2023/01/25 03:31:49;;;;;;;13.35;7.25;;;;;;;8.50;100.00;102772.56;5048965;28;20116;-42
2023/01/25 03:34:16;;;;;;;11.55;7.25;;;;;;;8.51;100.00;102775.06;5048930;28;20052;-43
2023/01/25 03:36:42;;;;;;;15.48;8.27;;;;;;;8.51;100.00;102777.81;5049661;28;20076;-43
2023/01/25 03:39:09;;;;;;;10.45;6.90;;;;;;;8.51;100.00;102788.03;5058677;28;20160;-43
2023/01/25 03:41:36;;;;;;;11.98;8.68;;;;;;;8.51;100.00;102785.25;5048715;28;20056;-43
2023/01/25 03:44:02;;;;;;;11.00;7.05;;;;;;;8.51;100.00;102776.97;5049554;28;20037;-44
2023/01/25 03:46:29;;;;;;;12.38;6.57;;;;;;;8.51;100.00;102779.75;5048459;28;20111;-43
2023/01/25 03:48:56;;;;;;;9.45;6.57;;;;;;;8.51;100.00;102782.50;5048780;28;20469;-49
2023/01/25 03:51:22;;;;;;;9.65;6.53;;;;;;;8.51;100.00;102776.97;5048291;28;20045;-43
2023/01/25 03:53:49;;;;;;;14.23;7.75;;;;;;;8.52;100.00;102781.41;5049146;28;20056;-43
2023/01/25 03:56:19;;;;;;;12.82;7.80;;;;;;;8.52;100.00;102770.38;5048490;28;20041;-44
2023/01/25 03:58:46;;;;;;;11.80;6.97;;;;;;;8.53;100.00;102766.47;5048846;28;20099;-43
2023/01/25 04:01:13;;;;;;;14.60;7.78;;;;;;;8.52;100.00;102765.66;5049144;28;20056;-43
2023/01/25 04:03:40;;;;;;;11.68;6.70;;;;;;;8.54;100.00;102768.97;5049361;28;20048;-44
2023/01/25 04:06:07;;;;;;;11.50;6.53;;;;;;;8.53;100.00;102777.50;5048436;28;20155;-43
2023/01/25 04:08:34;;;;;;;11.57;6.78;;;;;;;8.54;100.00;102776.41;5051298;28;20099;-43
2023/01/25 04:11:07;;;;;;;12.05;6.53;;;;;;;8.55;100.00;102775.31;5048918;28;20183;-43
2023/01/25 04:13:35;;;;;;;13.43;7.20;;;;;;;8.54;100.00;102774.50;5048325;28;20053;-45
2023/01/25 04:16:07;;;;;;;13.65;7.30;;;;;;;8.55;100.00;102770.59;5049555;28;20053;-45
2023/01/25 04:18:33;;;;;;;12.55;7.03;;;;;;;8.55;100.00;102770.59;5048222;28;20049;-48
2023/01/25 04:21:00;;;;;;;11.38;7.43;;;;;;;8.56;100.00;102768.69;5048172;28;20060;-42
2023/01/25 04:23:27;;;;;;;12.55;7.88;;;;;;;8.54;100.00;102763.44;5047833;28;20059;-45
2023/01/25 04:25:54;;;;;;;15.23;7.70;;;;;;;8.55;100.00;102775.31;5048181;28;20037;-42
2023/01/25 04:28:21;;;;;;;14.48;8.20;;;;;;;8.55;100.00;102770.59;5047140;28;20055;-50
2023/01/25 04:30:48;;;;;;;16.35;8.82;;;;;;;8.55;100.00;102764.28;5048257;28;20056;-42
2023/01/25 04:33:15;;;;;;;18.48;7.75;;;;;;;8.55;100.00;102767.84;5048761;28;20049;-44
2023/01/25 04:35:43;;;;;;;14.60;8.88;;;;;;;8.56;100.00;102766.75;5048105;28;20116;-44
2023/01/25 04:38:10;;;;;;;14.05;7.93;;;;;;;8.56;100.00;102763.16;5059094;28;20072;-42
2023/01/25 04:40:37;;;;;;;15.65;8.35;;;;;;;8.55;100.00;102756.00;5047795;28;20048;-42
2023/01/25 04:43:05;;;;;;;14.07;8.27;;;;;;;8.56;100.00;102746.59;5047583;28;20051;-43
2023/01/25 04:45:32;;;;;;;14.00;8.82;;;;;;;8.55;100.00;102753.25;5047668;28;20037;-42
2023/01/25 04:48:02;;;;;;;11.50;7.25;;;;;;;8.57;100.00;102759.28;5047782;28;20045;-44
2023/01/25 04:50:30;;;;;;;16.63;8.00;;;;;;;8.56;100.00;102754.88;5047976;28;20140;-47
2023/01/25 04:52:57;;;;;;;11.60;7.35;;;;;;;8.58;100.00;102752.66;5047366;28;20066;-42
2023/01/25 04:55:24;;;;;;;17.55;8.00;;;;;;;8.57;100.00;102735.28;5047964;28;20660;-44
2023/01/25 04:57:50;;;;;;;13.13;7.88;;;;;;;8.57;100.00;102734.44;5047596;28;20437;-43
2023/01/25 05:00:18;;;;;;;14.57;8.68;;;;;;;8.56;100.00;102733.63;5047314;28;20041;-42
2023/01/25 05:02:45;;;;;;;15.82;8.10;;;;;;;8.54;100.00;102741.38;5047199;28;20045;-43
2023/01/25 05:05:12;;;;;;;15.07;8.15;;;;;;;8.56;100.00;102746.59;5046975;28;20574;-43
2023/01/25 05:07:39;;;;;;;15.48;8.98;;;;;;;8.55;100.00;102754.03;5049524;28;20394;-43
2023/01/25 05:10:07;;;;;;;11.77;7.57;;;;;;;8.56;100.00;102743.81;5047101;28;20567;-43
2023/01/25 05:12:34;;;;;;;14.35;8.10;;;;;;;8.54;100.00;102737.78;5047191;28;20052;-42
2023/01/25 05:15:01;;;;;;;13.32;8.27;;;;;;;8.55;100.00;102739.44;5047518;28;20049;-43
2023/01/25 05:17:27;;;;;;;12.02;7.80;;;;;;;8.54;100.00;102729.50;5046740;28;20199;-43
2023/01/25 05:19:54;;;;;;;15.15;8.25;;;;;;;8.54;100.00;102729.50;5046780;28;20056;-43
2023/01/25 05:22:21;;;;;;;15.75;7.65;;;;;;;8.54;100.00;102729.50;5046927;28;20498;-44
2023/01/25 05:24:48;;;;;;;13.70;8.55;;;;;;;8.53;100.00;102727.81;5047909;28;20049;-43
2023/01/25 05:27:17;;;;;;;14.90;8.45;;;;;;;8.54;100.00;102723.97;5041462;28;20053;-42
2023/01/25 05:29:45;;;;;;;15.70;8.27;;;;;;;8.55;100.00;102725.63;5047401;28;20056;-43
2023/01/25 05:32:15;;;;;;;16.55;9.13;;;;;;;8.55;100.00;102717.34;5047074;28;20295;-43
2023/01/25 05:34:43;;;;;;;12.50;7.88;;;;;;;8.54;100.00;102712.91;5046798;28;20481;-43
2023/01/25 05:37:13;;;;;;;14.00;9.25;;;;;;;8.53;100.00;102706.56;5054761;28;20044;-42
2023/01/25 05:39:40;;;;;;;13.77;7.40;;;;;;;8.53;100.00;102700.22;5057655;28;20091;-42
2023/01/25 05:42:12;;;;;;;12.60;8.23;;;;;;;8.53;100.00;102691.94;5051844;28;20139;-45
2023/01/25 05:44:39;;;;;;;16.25;7.95;;;;;;;8.52;100.00;102693.06;5050799;28;20056;-42
2023/01/25 05:47:08;;;;;;;12.68;7.88;;;;;;;8.52;100.00;102688.34;5050827;28;20045;-47
2023/01/25 05:49:35;;;;;;;17.25;8.55;;;;;;;8.53;100.00;102684.47;5050605;28;20045;-43
2023/01/25 05:52:02;;;;;;;15.30;9.07;;;;;;;8.52;100.00;102682.81;5049408;28;20048;-42
2023/01/25 05:54:28;;;;;;;11.57;7.70;;;;;;;8.54;100.00;102682.56;5050758;28;20063;-43
2023/01/25 05:56:55;;;;;;;13.73;7.30;;;;;;;8.53;100.00;102683.66;5051043;28;20044;-42
2023/01/25 05:59:22;;;;;;;13.13;6.75;;;;;;;8.53;100.00;102678.97;5051039;28;20049;-42
2023/01/25 06:01:49;;;;;;;16.35;7.35;;;;;;;8.54;100.00;102686.16;5050406;28;20140;-42
2023/01/25 06:04:17;;;;;;;15.45;8.07;;;;;;;8.53;100.00;102684.47;5050329;28;20041;-43
2023/01/25 06:06:44;;;;;;;15.40;8.85;;;;;;;8.54;100.00;102679.78;5050885;28;20072;-42
2023/01/25 06:09:12;;;;;;;15.10;7.00;;;;;;;8.53;100.00;102656.06;5054303;28;20565;-49
2023/01/25 06:11:39;;;;;;;32.45;8.45;;;;;;;8.54;100.00;102668.75;5050609;28;20045;-42
2023/01/25 06:14:05;;;;;;;13.98;8.35;;;;;;;8.52;100.00;102666.25;5050045;28;20562;-42
2023/01/25 06:16:32;;;;;;;11.32;6.10;;;;;;;8.53;100.00;102672.63;5049578;28;20064;-42
2023/01/25 06:18:59;;;;;;;13.35;6.15;;;;;;;8.52;100.00;102670.97;5050449;28;20127;-43
2023/01/25 06:21:25;;;;;;;12.68;6.10;;;;;;;8.51;100.00;102681.19;5050017;28;20060;-42
2023/01/25 06:23:53;;;;;;;12.68;5.68;;;;;;;8.51;100.00;102680.34;5049837;28;20118;-42
2023/01/25 06:26:19;;;;;;;11.38;6.47;;;;;;;8.52;100.00;102670.97;5048139;28;20055;-42
2023/01/25 06:28:46;;;;;;;11.13;5.75;;;;;;;8.51;100.00;102686.72;5048273;28;20372;-47
2023/01/25 06:31:15;;;;;;;9.85;5.57;;;;;;;8.51;100.00;102686.72;5050233;28;20055;-42
2023/01/25 06:33:46;;;;;;;11.15;5.03;;;;;;;8.51;100.00;102694.16;5050508;28;20041;-42
2023/01/25 06:36:15;;;;;;;12.40;5.93;;;;;;;8.49;100.00;102699.16;5050242;28;20052;-42
2023/01/25 06:38:42;;;;;;;10.10;5.25;;;;;;;8.47;100.00;102691.13;5061000;28;20053;-42
2023/01/25 06:41:10;;;;;;;10.05;5.38;;;;;;;8.47;100.00;102687.56;5050067;28;20037;-42
2023/01/25 06:43:38;;;;;;;10.35;5.50;;;;;;;8.46;100.00;102694.19;5049508;28;20037;-42
2023/01/25 06:46:07;;;;;;;9.52;4.75;;;;;;;8.47;100.00;102687.56;5049631;28;20102;-43
2023/01/25 06:48:34;;;;;;;7.43;5.05;;;;;;;8.47;100.00;102691.13;5048519;28;20098;-43
2023/01/25 06:51:04;;;;;;;8.60;5.28;;;;;;;8.48;100.00;102680.94;5050545;28;20410;-44
2023/01/25 06:53:34;;;;;;;8.05;5.03;;;;;;;8.48;100.00;102667.13;5049788;28;20054;-43
2023/01/25 06:56:07;;;;;;;10.63;5.05;;;;;;;8.47;100.00;102669.06;5049417;28;20053;-42
2023/01/25 06:58:37;;;;;;;8.82;5.30;;;;;;;8.47;100.00;102657.22;5049670;28;20127;-43
2023/01/25 07:01:19;;;;;;;14.23;5.75;;;;;;;8.48;100.00;102665.19;5049331;28;20048;-42
2023/01/25 07:03:51;;;;;;;9.02;5.68;;;;;;;8.49;100.00;102672.38;5049599;28;20053;-42
2023/01/25 07:06:18;;;;;;;7.45;5.68;;;;;;;8.49;100.00;102666.03;5050335;28;20048;-42
2023/01/25 07:08:45;;;;;;;9.90;5.45;;;;;;;8.50;100.00;102678.69;5053064;28;20052;-43
2023/01/25 07:11:13;;;;;;;11.93;6.20;;;;;;;8.51;100.00;102677.59;5049501;28;20076;-50
2023/01/25 07:13:42;;;;;;;7.35;4.85;;;;;;;8.52;100.00;102659.94;5049721;28;20048;-45
2023/01/25 07:16:13;;;;;;;9.88;5.90;;;;;;;8.53;100.00;102647.75;5040522;28;20103;-42
2023/01/25 07:18:41;;;;;;;16.33;6.50;;;;;;;8.53;100.00;102645.00;5049521;28;20049;-42
2023/01/25 07:21:12;;;;;;;10.60;6.78;;;;;;;8.52;100.00;102635.09;5049769;28;20437;-42
2023/01/25 07:23:40;;;;;;;8.50;5.13;;;;;;;8.52;100.00;102624.06;5048724;28;20526;-45
2023/01/25 07:26:31;;;;;;;10.43;6.15;;;;;;;8.50;100.00;102609.69;5049497;28;20148;-46
2023/01/25 07:28:58;;;;;;;9.88;5.60;;;;;;;8.50;100.00;102595.88;5047980;28;20132;-42
2023/01/25 07:31:25;;;;;;;9.88;5.90;;;;;;;8.49;100.00;102583.22;5049863;28;20044;-43
2023/01/25 07:33:54;;;;;;;14.55;7.15;;;;;;;8.48;100.00;102576.88;5048616;28;20075;-45
2023/01/25 07:36:22;;;;;;;12.70;7.00;;;;;;;8.47;100.00;102590.97;5048686;28;20033;-43
2023/01/25 07:38:55;;;;;;;11.27;6.13;;;;;;;8.46;100.00;102586.53;5060808;28;20056;-42
2023/01/25 07:41:23;;;;;;;10.60;5.18;;;;;;;8.44;100.00;102578.56;5048818;28;20408;-43
2023/01/25 07:43:51;;;;;;;7.88;5.25;;;;;;;8.45;100.00;102599.50;5049015;28;20076;-43
2023/01/25 07:46:18;;;;;;;6.45;4.40;;;;;;;8.45;100.00;102593.16;5048906;28;20048;-48
2023/01/25 07:48:49;;;;;;;7.22;4.68;;;;;;;8.45;100.00;102582.13;5049061;28;20060;-42
2023/01/25 07:51:25;;;;;;;12.63;4.18;;;;;;;8.45;100.00;102598.69;5048010;28;20053;-45
2023/01/25 07:54:03;;;;;;;7.38;4.47;;;;;;;8.44;100.00;102589.59;5040676;28;20127;-43
2023/01/25 07:56:33;;;;;;;7.55;4.78;;;;;;;8.44;100.00;102597.06;5048176;28;20045;-41
2023/01/25 07:59:01;;;;;;;7.28;3.95;;;;;;;8.44;100.00;102574.97;5048537;28;20049;-43
2023/01/25 08:01:33;;;;;;;7.80;4.93;;;;;;;8.44;100.00;102564.75;5047992;28;20443;-42
2023/01/25 08:04:01;;;;;;;6.28;3.97;;;;;;;8.43;100.00;102556.75;5048474;28;20056;-42
2023/01/25 08:06:34;;;;;;;9.25;4.35;;;;;;;8.42;100.00;102578.00;5048529;28;20032;-46
2023/01/25 08:09:09;;;;;;;8.27;4.53;;;;;;;8.39;100.00;102586.84;5052544;28;20052;-49
2023/01/25 08:11:37;;;;;;;9.30;5.75;;;;;;;8.38;100.00;102579.69;5047972;28;20052;-43
2023/01/25 08:14:04;;;;;;;11.93;4.47;;;;;;;8.39;100.00;102588.81;5048816;28;20053;-43
2023/01/25 08:16:31;;;;;;;7.13;4.00;;;;;;;8.41;100.00;102592.09;5062784;28;20442;-48
2023/01/25 08:18:59;;;;;;;6.30;4.00;;;;;;;8.43;100.00;102589.88;5044914;28;20056;-44
2023/01/25 08:21:29;;;;;;;6.05;3.83;;;;;;;8.44;100.00;102583.25;5047084;28;20406;-43
2023/01/25 08:24:02;;;;;;;6.18;4.43;;;;;;;8.44;100.00;102583.25;5045931;28;20045;-46
2023/01/25 08:26:29;;;;;;;6.25;3.60;;;;;;;8.46;100.00;102583.78;5047982;28;20069;-45
2023/01/25 08:28:56;;;;;;;5.20;3.47;;;;;;;8.45;100.00;102595.91;5047848;28;20060;-45
2023/01/25 08:31:29;;;;;;;6.30;4.05;;;;;;;8.46;100.00;102600.34;5044664;28;20052;-43
2023/01/25 08:33:56;;;;;;;8.30;4.63;;;;;;;8.48;100.00;102611.91;5047854;28;20073;-47
2023/01/25 08:36:23;;;;;;;6.53;4.20;;;;;;;8.47;100.00;102619.38;5048894;28;20045;-44
2023/01/25 08:38:55;;;;;;;6.60;4.32;;;;;;;8.47;100.00;102602.00;5053224;28;20044;-43
2023/01/25 08:41:22;;;;;;;;;;;;;;;8.47;100.00;102602.00;5049283;28;20521;-45
2023/01/25 08:43:52;;;;;;;7.00;3.97;;;;;;;8.45;100.00;102590.41;5047605;28;19921;-43
2023/01/25 08:46:20;;;;;;;7.72;4.00;;;;;;;8.45;100.00;102593.16;5048786;28;20140;-43
2023/01/25 08:48:46;;;;;;;7.25;3.80;;;;;;;8.45;100.00;102582.13;5049576;28;20092;-43
2023/01/25 08:51:15;;;;;;;8.95;4.00;;;;;;;8.45;100.00;102576.59;5048440;28;20087;-45
2023/01/25 08:53:42;;;;;;;6.07;3.17;;;;;;;8.47;100.00;102574.41;5048949;28;20051;-43
2023/01/25 08:56:14;;;;;;;6.72;3.83;;;;;;;8.47;100.00;102568.88;5047076;28;20083;-43
2023/01/25 08:58:46;;;;;;;5.68;3.50;;;;;;;8.48;100.00;102542.91;5048844;28;20041;-47
2023/01/25 09:01:14;;;;;;;;;;;;;;;8.48;100.00;102551.19;5048965;28;20113;-43
2023/01/25 09:03:43;;;;;;;6.35;4.15;;;;;;;8.46;100.00;102540.44;5048217;28;19924;-42
2023/01/25 09:06:11;;;;;;;6.82;4.05;;;;;;;8.47;100.00;102552.31;5049340;28;20509;-43
2023/01/25 09:08:38;;;;;;;6.03;3.42;;;;;;;8.48;100.00;102553.94;5059750;28;20036;-42
2023/01/25 09:11:11;;;;;;;7.50;3.33;;;;;;;8.47;100.00;102558.63;5046531;28;20081;-43
2023/01/25 09:13:42;;;;;;;;;;;;;;;8.47;100.00;102566.13;5048515;28;20059;-47
2023/01/25 09:16:19;;;;;;;5.97;3.88;;;;;;;8.47;100.00;102550.34;5048351;28;19928;-48
2023/01/25 09:18:46;;;;;;;6.40;3.53;;;;;;;8.48;100.00;102560.31;5048490;28;20546;-43
2023/01/25 09:21:17;;;;;;;5.20;3.60;;;;;;;8.48;100.00;102562.22;5048602;28;20405;-43
2023/01/25 09:23:48;;;;;;;5.85;4.22;;;;;;;8.48;100.00;102570.50;5049193;28;20053;-43
2023/01/25 09:26:23;;;;;;;7.68;3.97;;;;;;;8.49;100.00;102586.81;5045858;28;20045;-46
2023/01/25 09:28:52;;;;;;;5.30;3.95;;;;;;;8.50;100.00;102595.88;5046186;28;20049;-42
2023/01/25 09:31:19;;;;;;;4.38;3.30;;;;;;;8.52;100.00;102599.22;5048439;28;20524;-42
2023/01/25 09:33:51;;;;;;;4.75;3.65;;;;;;;8.54;100.00;102595.06;5046885;28;20143;-43
2023/01/25 09:36:19;;;;;;;6.85;4.15;;;;;;;8.57;100.00;102579.84;5048021;28;20430;-44
2023/01/25 09:38:46;;;;;;;8.63;4.32;;;;;;;8.58;100.00;102587.81;5060067;28;20060;-45
2023/01/25 09:41:24;;;;;;;5.90;3.83;;;;;;;8.60;100.00;102583.97;5049305;28;20403;-43
2023/01/25 09:44:00;;;;;;;7.03;3.80;;;;;;;8.61;100.00;102561.59;5044206;28;20503;-43
2023/01/25 09:46:42;;;;;;;8.07;4.70;;;;;;;8.63;100.00;102555.78;5048359;28;20052;-43
2023/01/25 09:49:43;;;;;;;6.68;3.80;;;;;;;8.65;100.00;102564.59;5048072;28;20037;-42
2023/01/25 09:52:42;;;;;;;6.60;3.45;;;;;;;8.68;100.00;102581.44;5048772;28;20677;-49
2023/01/25 09:55:15;;;;;;;8.18;4.38;;;;;;;8.69;100.00;102594.09;5032871;28;20048;-43
2023/01/25 09:57:45;;;;;;;9.52;4.60;;;;;;;8.69;100.00;102591.34;5048130;28;20414;-43
2023/01/25 10:00:38;;;;;;;10.88;5.07;;;;;;;8.69;100.00;102577.53;5048283;28;20082;-42
2023/01/25 10:03:26;;;;;;;12.32;5.22;;;;;;;8.68;100.00;102569.56;5033319;28;20061;-44
2023/01/25 10:05:56;;;;;;;8.88;4.57;;;;;;;8.65;100.00;102554.38;5048257;28;20402;-43
2023/01/25 10:08:31;;;;;;;9.15;4.55;;;;;;;8.63;100.00;102564.88;5052329;28;20048;-43
2023/01/25 10:11:13;;;;;;;8.40;5.10;;;;;;;8.62;100.00;102557.72;5048007;28;20041;-43
2023/01/25 10:13:40;;;;;;;11.73;4.90;;;;;;;8.62;100.00;102552.19;5048553;28;20056;-43
2023/01/25 10:16:17;;;;;;;8.68;4.80;;;;;;;8.64;100.00;102552.72;5048215;28;20402;-43
2023/01/25 10:19:11;;;;;;;7.97;5.05;;;;;;;8.65;100.00;102550.78;5048042;28;20520;-44
2023/01/25 10:21:48;;;;;;;9.57;5.13;;;;;;;8.68;100.00;102575.91;5048345;28;20060;-43
2023/01/25 10:24:24;;;;;;;6.88;4.28;;;;;;;8.69;100.00;102582.22;5038311;28;20491;-43
2023/01/25 10:27:00;;;;;;;8.70;4.93;;;;;;;8.71;100.00;102602.13;5046464;28;20041;-43
2023/01/25 10:29:31;;;;;;;11.13;6.22;;;;;;;8.71;100.00;102597.38;5052197;28;20045;-44
2023/01/25 10:32:23;;;;;;;12.13;6.10;;;;;;;8.76;100.00;102608.44;5051809;28;20045;-47
2023/01/25 10:34:53;;;;;;;;;;;;;;;8.75;100.00;102612.28;5051937;28;20060;-44
2023/01/25 10:37:29;;;;;;;14.07;6.30;;;;;;;8.78;100.00;102614.47;5057988;28;19942;-44
2023/01/25 10:39:59;;;;;;;12.18;7.72;;;;;;;8.82;100.00;102609.19;5055640;28;20072;-42
2023/01/25 10:42:30;;;;;;;12.70;7.05;;;;;;;8.85;100.00;102612.22;5051447;28;20076;-43
2023/01/25 10:44:57;;;;;;;11.13;6.13;;;;;;;8.91;100.00;102608.28;5051306;28;20052;-43
2023/01/25 10:47:32;;;;;;;11.50;6.90;;;;;;;8.95;100.00;102612.13;5052148;28;20045;-43
2023/01/25 10:49:59;;;;;;;13.45;6.80;;;;;;;8.98;100.00;102607.94;5049271;28;20136;-42
2023/01/25 10:52:31;;;;;;;13.85;6.60;;;;;;;8.99;100.00;102606.84;5051180;28;20041;-42
2023/01/25 10:55:18;;;;;;;12.90;8.00;;;;;;;9.00;100.00;102612.06;5051129;28;20055;-44
2023/01/25 10:57:56;;;;;;;16.27;8.05;;;;;;;9.02;100.00;102620.09;5050916;28;20107;-43
2023/01/25 11:00:32;;;;;;;12.32;8.25;;;;;;;9.02;100.00;102620.09;5051194;28;20036;-45
2023/01/25 11:02:59;;;;;;;12.77;7.30;;;;;;;9.00;100.00;102612.06;5050056;28;20057;-45
2023/01/25 11:05:33;;;;;;;15.55;7.55;;;;;;;9.03;100.00;102613.44;5051537;28;20512;-43
2023/01/25 11:08:24;;;;;;;19.17;7.72;;;;;;;9.06;100.00;102616.44;5054952;28;20394;-43
2023/01/25 11:10:52;;;;;;;15.45;7.78;;;;;;;9.08;100.00;102619.75;5041789;28;20049;-43
2023/01/25 11:13:20;;;;;;;12.55;8.23;;;;;;;9.12;100.00;102618.06;5050788;28;20494;-44
2023/01/25 11:16:14;;;;;;;11.98;7.38;;;;;;;9.16;100.00;102610.00;5032209;28;20076;-43
2023/01/25 11:18:55;;;;;;;13.65;7.72;;;;;;;9.23;100.00;102607.75;5050743;28;20049;-43
2023/01/25 11:21:32;;;;;;;15.82;6.95;;;;;;;9.27;100.00;102617.09;5050985;28;20502;-45
2023/01/25 11:24:04;;;;;;;11.27;7.40;;;;;;;9.31;100.00;102620.09;5050886;28;20043;-42
2023/01/25 11:26:32;;;;;;;10.13;6.40;;;;;;;9.32;100.00;102611.50;5046851;28;20495;-42
2023/01/25 11:29:11;;;;;;;9.95;6.28;;;;;;;9.33;100.00;102621.44;5061607;28;20095;-43
2023/01/25 11:31:40;;;;;;;5.68;3.67;;;;;;;9.34;100.00;102634.16;5044652;28;20048;-43
2023/01/25 11:34:10;;;;;;;1.92;0.80;;;;;;;9.27;100.00;102636.44;5049705;28;20111;-43